createdAt,value
2022-08-25T00:00:32.804Z,5.20
2022-08-25T00:05:34.677Z,5.75
2022-08-25T00:10:38.341Z,5.75
2022-08-25T00:15:39.900Z,6.22
2022-08-25T00:20:41.354Z,7.30
2022-08-25T00:25:50.626Z,6.07
2022-08-25T00:30:52.277Z,6.18
2022-08-25T00:35:55.646Z,6.25
2022-08-25T00:41:06.303Z,6.18
2022-08-25T00:46:13.222Z,6.68
2022-08-25T00:51:21.348Z,6.32
2022-08-25T00:56:23.806Z,7.95
2022-08-25T01:01:26.008Z,7.63
2022-08-25T01:06:31.713Z,8.68
2022-08-25T01:11:34.260Z,7.07
2022-08-25T01:16:37.907Z,6.63
2022-08-25T01:21:46.446Z,6.95
2022-08-25T01:26:47.852Z,6.85
2022-08-25T01:32:04.587Z,6.53
2022-08-25T01:37:06.498Z,6.80
2022-08-25T01:42:10.823Z,7.05
2022-08-25T01:47:13.392Z,7.35
2022-08-25T01:52:19.275Z,7.93
2022-08-25T01:57:23.024Z,8.13
2022-08-25T02:02:24.301Z,9.98
2022-08-25T02:07:27.637Z,11.13
2022-08-25T02:12:31.442Z,11.38
2022-08-25T02:17:35.881Z,11.32
2022-08-25T02:22:37.248Z,10.93
2022-08-25T02:27:38.686Z,10.10
2022-08-25T02:32:40.337Z,9.52
2022-08-25T02:37:41.893Z,9.27
2022-08-25T02:42:43.946Z,10.27
2022-08-25T02:47:45.429Z,10.93
2022-08-25T02:52:49.759Z,11.18
2022-08-25T02:57:51.027Z,9.75
2022-08-25T03:02:52.261Z,10.02
2022-08-25T03:07:54.052Z,10.68
2022-08-25T03:12:55.461Z,10.93
2022-08-25T03:17:57.077Z,11.02
2022-08-25T03:23:05.399Z,10.85
2022-08-25T03:28:07.254Z,10.23
2022-08-25T03:33:08.482Z,10.82
2022-08-25T03:38:10.825Z,10.88
2022-08-25T03:43:12.497Z,9.75
2022-08-25T03:48:15.414Z,9.82
2022-08-25T03:53:17.637Z,10.50
2022-08-25T03:58:18.867Z,9.75
2022-08-25T04:03:20.226Z,10.27
2022-08-25T04:08:21.855Z,9.57
2022-08-25T04:13:23.301Z,9.70
2022-08-25T04:18:24.476Z,9.07
2022-08-25T04:23:25.637Z,9.00
2022-08-25T04:28:26.865Z,8.57
2022-08-25T04:33:28.363Z,9.27
2022-08-25T04:38:29.902Z,9.23
2022-08-25T04:43:32.635Z,8.48
2022-08-25T04:48:34.416Z,9.50
2022-08-25T04:53:36.836Z,9.30
2022-08-25T04:58:38.608Z,9.75
2022-08-25T05:03:39.973Z,9.35
2022-08-25T05:08:41.545Z,8.57
2022-08-25T05:13:51.315Z,8.63
2022-08-25T05:18:53.960Z,8.43
2022-08-25T05:23:59.820Z,7.68
2022-08-25T05:29:03.763Z,8.43
2022-08-25T05:34:07.098Z,8.13
2022-08-25T05:39:09.412Z,7.75
2022-08-25T05:44:11.916Z,7.82
2022-08-25T05:49:13.208Z,6.97
2022-08-25T05:54:14.741Z,5.28
2022-08-25T05:59:16.191Z,5.05
2022-08-25T06:04:18.732Z,5.05
2022-08-25T06:09:21.736Z,4.57
2022-08-25T06:14:24.340Z,4.05
2022-08-25T06:19:26.506Z,4.32
2022-08-25T06:24:28.862Z,4.63
2022-08-25T06:29:30.162Z,4.25
2022-08-25T06:34:32.067Z,3.83
2022-08-25T06:39:33.690Z,4.03
2022-08-25T06:44:35.085Z,4.05
2022-08-25T06:49:36.410Z,3.53
2022-08-25T06:54:38.099Z,3.75
2022-08-25T06:59:41.470Z,3.75
2022-08-25T07:04:43.085Z,3.60
2022-08-25T07:09:44.308Z,3.08
2022-08-25T07:14:58.021Z,2.33
2022-08-25T07:20:05.541Z,2.40
2022-08-25T07:25:07.995Z,2.50
2022-08-25T07:30:09.603Z,2.33
2022-08-25T07:35:15.669Z,2.38
2022-08-25T07:40:24.360Z,2.40
2022-08-25T07:45:31.432Z,2.60
2022-08-25T07:50:33.577Z,2.10
2022-08-25T07:55:38.315Z,2.58
2022-08-25T08:00:42.415Z,2.30
2022-08-25T08:05:43.708Z,2.40
2022-08-25T08:11:03.202Z,2.42
2022-08-25T08:16:11.394Z,2.30
2022-08-25T08:21:19.295Z,2.58
2022-08-25T08:26:31.663Z,2.08
2022-08-25T08:31:48.546Z,2.15
2022-08-25T08:36:50.275Z,2.20
2022-08-25T08:42:18.608Z,2.53
2022-08-25T08:47:39.312Z,2.20
2022-08-25T08:52:53.961Z,1.88
2022-08-25T08:57:58.221Z,2.13
2022-08-25T09:03:05.493Z,1.83
2022-08-25T09:08:11.766Z,2.20
2022-08-25T09:13:31.369Z,1.92
2022-08-25T09:19:26.440Z,2.00
2022-08-25T09:24:58.046Z,1.75
2022-08-25T09:30:07.363Z,1.92
2022-08-25T09:35:18.954Z,1.77
2022-08-25T09:40:20.664Z,1.70
2022-08-25T09:45:42.329Z,1.80
2022-08-25T09:50:46.715Z,1.60
2022-08-25T09:55:59.899Z,1.58
2022-08-25T10:01:13.198Z,1.50
2022-08-25T10:06:15.137Z,1.27
2022-08-25T10:11:42.724Z,1.27
2022-08-25T10:16:47.193Z,1.33
2022-08-25T10:22:06.457Z,1.60
2022-08-25T10:27:37.272Z,1.25
2022-08-25T10:32:45.483Z,1.60
2022-08-25T10:38:07.180Z,1.60
2022-08-25T10:43:35.050Z,1.60
2022-08-25T10:48:36.263Z,1.60
2022-08-25T10:53:56.343Z,1.70
2022-08-25T10:59:07.059Z,1.63
2022-08-25T11:04:27.735Z,1.67
2022-08-25T11:09:33.899Z,1.55
2022-08-25T11:15:01.261Z,1.67
2022-08-25T11:20:20.542Z,1.60
2022-08-25T11:25:34.433Z,1.70
2022-08-25T11:30:37.464Z,1.70
2022-08-25T11:35:59.179Z,1.83
2022-08-25T11:41:23.451Z,1.88
2022-08-25T11:47:06.812Z,1.60
2022-08-25T11:52:32.777Z,1.60
2022-08-25T11:57:37.597Z,1.60
2022-08-25T12:02:43.721Z,1.70
2022-08-25T12:08:12.950Z,1.80
2022-08-25T12:13:37.649Z,1.80
2022-08-25T12:18:45.720Z,1.52
2022-08-25T12:24:05.574Z,1.80
2022-08-25T12:29:26.065Z,1.45
2022-08-25T12:34:27.337Z,1.70
2022-08-25T12:39:35.960Z,1.63
2022-08-25T12:44:49.523Z,1.80
2022-08-25T12:49:50.973Z,1.98
2022-08-25T12:54:59.849Z,1.42
2022-08-25T13:00:15.442Z,1.85
2022-08-25T13:05:33.906Z,1.70
2022-08-25T13:10:51.673Z,1.77
2022-08-25T13:16:06.427Z,2.00
2022-08-25T13:21:21.204Z,1.58
2022-08-25T13:26:27.039Z,1.52
2022-08-25T13:31:30.973Z,2.17
2022-08-25T13:36:59.933Z,1.70
2022-08-25T13:42:06.464Z,1.33
2022-08-25T13:47:24.147Z,1.88
2022-08-25T13:52:29.122Z,1.80
2022-08-25T13:57:31.577Z,1.83
2022-08-25T14:02:49.802Z,1.58
2022-08-25T14:08:09.237Z,1.50
2022-08-25T14:13:30.481Z,2.13
2022-08-25T14:18:33.392Z,3.45
2022-08-25T14:23:37.528Z,3.03
2022-08-25T14:28:39.001Z,3.47
2022-08-25T14:33:50.068Z,2.92
2022-08-25T14:38:54.784Z,3.28
2022-08-25T14:43:56.273Z,3.47
2022-08-25T14:49:02.109Z,3.10
2022-08-25T14:54:06.885Z,3.15
2022-08-25T14:59:10.147Z,3.00
2022-08-25T15:04:30.598Z,3.45
2022-08-25T15:09:33.402Z,3.63
2022-08-25T15:14:35.005Z,3.25
2022-08-25T15:19:36.335Z,3.13
2022-08-25T15:24:38.995Z,2.95
2022-08-25T15:29:41.029Z,3.13
2022-08-25T15:34:42.407Z,3.05
2022-08-25T15:39:44.871Z,5.00
2022-08-25T15:44:53.110Z,4.35
2022-08-25T15:50:15.691Z,5.45
2022-08-25T15:55:17.270Z,6.30
2022-08-25T16:00:19.210Z,8.85
2022-08-25T16:05:25.988Z,8.02
2022-08-25T16:10:27.625Z,7.13
2022-08-25T16:15:29.042Z,8.50
2022-08-25T16:20:32.631Z,8.43
2022-08-25T16:25:39.628Z,8.88
2022-08-25T16:30:52.913Z,9.43
2022-08-25T16:36:10.999Z,8.05
2022-08-25T16:41:18.187Z,9.70
2022-08-25T16:46:21.236Z,10.73
2022-08-25T16:51:25.599Z,9.68
2022-08-25T16:56:34.406Z,9.98
2022-08-25T17:01:37.193Z,10.27
2022-08-25T17:06:41.721Z,10.02
2022-08-25T17:11:55.927Z,10.88
2022-08-25T17:16:57.298Z,11.05
2022-08-25T17:21:58.838Z,10.30
2022-08-25T17:27:01.411Z,11.48
2022-08-25T17:32:04.439Z,12.43
2022-08-25T17:37:06.083Z,11.10
2022-08-25T17:42:07.464Z,12.68
2022-08-25T17:47:10.476Z,13.07
2022-08-25T17:52:12.411Z,14.68
2022-08-25T17:57:15.397Z,16.25
2022-08-25T18:02:16.584Z,15.40
2022-08-25T18:07:18.445Z,15.77
2022-08-25T18:12:20.170Z,15.65
2022-08-25T18:17:22.979Z,15.75
2022-08-25T18:22:24.324Z,16.65
2022-08-25T18:27:26.105Z,15.95
2022-08-25T18:32:28.626Z,18.35
2022-08-25T18:37:48.992Z,18.90
2022-08-25T18:43:02.604Z,17.92
2022-08-25T18:48:04.447Z,18.83
2022-08-25T18:53:09.057Z,19.45
2022-08-25T18:58:11.497Z,17.42
2022-08-25T19:03:14.677Z,17.83
2022-08-25T19:08:18.431Z,16.05
2022-08-25T19:13:36.713Z,11.27
2022-08-25T19:18:38.372Z,11.90
2022-08-25T19:23:39.709Z,10.65
2022-08-25T19:29:19.601Z,8.88
2022-08-25T19:34:41.370Z,8.60
2022-08-25T19:39:52.928Z,8.57
2022-08-25T19:44:54.539Z,7.90
2022-08-25T19:49:57.739Z,7.97
2022-08-25T19:55:06.807Z,8.40
2022-08-25T20:00:22.935Z,8.32
2022-08-25T20:05:24.252Z,8.15
2022-08-25T20:10:28.356Z,7.13
2022-08-25T20:15:34.285Z,6.57
2022-08-25T20:20:45.238Z,6.22
2022-08-25T20:25:53.408Z,6.07
2022-08-25T20:30:55.699Z,6.15
2022-08-25T20:35:58.633Z,5.65
2022-08-25T20:41:00.682Z,4.60
2022-08-25T20:46:04.288Z,3.80
2022-08-25T20:51:06.971Z,3.83
2022-08-25T20:56:10.963Z,2.72
2022-08-25T21:01:23.114Z,3.10
2022-08-25T21:06:24.656Z,2.75
2022-08-25T21:11:26.487Z,2.80
2022-08-25T21:16:28.898Z,2.53
2022-08-25T21:21:30.516Z,2.97
2022-08-25T21:26:31.916Z,3.55
2022-08-25T21:31:35.601Z,3.10
2022-08-25T21:36:43.773Z,3.38
2022-08-25T21:41:47.656Z,4.57
2022-08-25T21:46:58.454Z,4.32
2022-08-25T21:52:04.338Z,5.28
2022-08-25T21:57:07.206Z,6.35
2022-08-25T22:02:11.051Z,6.13
2022-08-25T22:07:13.187Z,7.25
2022-08-25T22:12:14.524Z,7.05
2022-08-25T22:17:17.333Z,6.40
2022-08-25T22:22:28.144Z,5.57
2022-08-25T22:27:31.005Z,5.72
2022-08-25T22:32:32.352Z,4.57
2022-08-25T22:37:34.138Z,4.00
2022-08-25T22:42:37.312Z,3.08
2022-08-25T22:47:39.072Z,3.33
2022-08-25T22:52:42.646Z,3.28
2022-08-25T22:57:54.737Z,2.95
2022-08-25T23:02:56.401Z,3.35
2022-08-25T23:07:57.977Z,3.15
2022-08-25T23:12:59.555Z,2.97
2022-08-25T23:18:00.929Z,3.28
2022-08-25T23:23:02.388Z,2.50
2022-08-25T23:28:03.799Z,2.90
2022-08-25T23:33:05.032Z,2.97
2022-08-25T23:38:06.685Z,2.10
2022-08-25T23:43:09.895Z,2.67
2022-08-25T23:48:11.178Z,2.20
2022-08-25T23:53:15.373Z,2.35
2022-08-25T23:58:17.123Z,1.83
